createdAt,value
2017-09-24T00:01:45.480Z,23.07
2017-09-24T00:04:13.931Z,28.03
2017-09-24T00:06:43.129Z,23.70
2017-09-24T00:09:12.352Z,23.40
2017-09-24T00:11:40.839Z,22.87
2017-09-24T00:14:09.300Z,24.00
2017-09-24T00:16:38.499Z,23.10
2017-09-24T00:19:07.714Z,24.50
2017-09-24T00:21:36.203Z,22.27
2017-09-24T00:24:04.681Z,23.67
2017-09-24T00:26:33.112Z,23.50
2017-09-24T00:29:01.540Z,21.30
2017-09-24T00:31:29.988Z,21.20
2017-09-24T00:33:58.428Z,22.10
2017-09-24T00:36:26.884Z,22.10
2017-09-24T00:38:55.320Z,20.53
2017-09-24T00:41:23.771Z,20.27
2017-09-24T00:43:52.236Z,22.63
2017-09-24T00:46:20.683Z,21.77
2017-09-24T00:48:49.880Z,22.13
2017-09-24T00:51:19.103Z,22.53
2017-09-24T00:53:47.540Z,21.40
2017-09-24T00:56:16.075Z,22.60
2017-09-24T00:58:44.513Z,21.23
2017-09-24T01:01:12.963Z,22.50
2017-09-24T01:03:41.396Z,21.20
2017-09-24T01:06:10.635Z,20.53
2017-09-24T01:08:39.068Z,19.43
2017-09-24T01:11:08.292Z,23.03
2017-09-24T01:13:36.784Z,23.70
2017-09-24T01:16:05.263Z,22.20
2017-09-24T01:18:33.696Z,22.93
2017-09-24T01:21:02.141Z,24.70
2017-09-24T01:23:30.618Z,24.53
2017-09-24T01:25:59.096Z,25.87
2017-09-24T01:28:29.896Z,24.60
2017-09-24T01:30:59.119Z,26.00
2017-09-24T01:33:27.548Z,25.57
2017-09-24T01:35:55.999Z,26.37
2017-09-24T01:38:24.432Z,25.03
2017-09-24T01:40:53.677Z,23.90
2017-09-24T01:43:22.115Z,23.43
2017-09-24T01:45:50.631Z,24.00
2017-09-24T01:48:19.083Z,25.53
2017-09-24T01:50:48.316Z,27.47
2017-09-24T01:53:16.780Z,24.03
2017-09-24T01:55:45.980Z,22.37
2017-09-24T01:58:15.302Z,25.37
2017-09-24T02:00:43.752Z,24.47
2017-09-24T02:03:13.079Z,22.77
2017-09-24T02:05:41.511Z,25.40
2017-09-24T02:08:09.968Z,25.53
2017-09-24T02:10:38.409Z,23.63
2017-09-24T02:13:06.911Z,23.07
2017-09-24T02:15:35.392Z,24.60
2017-09-24T02:18:03.852Z,25.20
2017-09-24T02:20:33.060Z,23.77
2017-09-24T02:23:01.516Z,24.87
2017-09-24T02:25:30.721Z,26.80
2017-09-24T02:27:59.944Z,22.27
2017-09-24T02:30:28.384Z,27.93
2017-09-24T02:32:56.853Z,25.83
2017-09-24T02:35:25.292Z,27.40
2017-09-24T02:37:53.773Z,23.97
2017-09-24T02:40:22.255Z,26.90
2017-09-24T02:42:50.692Z,30.07
2017-09-24T02:45:19.153Z,27.47
2017-09-24T02:47:47.604Z,27.17
2017-09-24T02:50:16.060Z,29.13
2017-09-24T02:52:45.259Z,27.90
2017-09-24T02:55:14.479Z,33.67
2017-09-24T02:57:42.916Z,31.17
2017-09-24T03:00:11.443Z,28.67
2017-09-24T03:02:39.872Z,33.03
2017-09-24T03:05:08.327Z,29.70
2017-09-24T03:07:36.865Z,31.30
2017-09-24T03:10:06.196Z,36.67
2017-09-24T03:12:34.639Z,39.13
2017-09-24T03:15:03.970Z,36.70
2017-09-24T03:17:32.399Z,34.20
2017-09-24T03:20:00.944Z,38.47
2017-09-24T03:22:29.380Z,37.37
2017-09-24T03:24:57.911Z,38.60
2017-09-24T03:27:26.352Z,36.50
2017-09-24T03:29:55.585Z,36.47
2017-09-24T03:32:24.029Z,33.87
2017-09-24T03:34:53.260Z,37.23
2017-09-24T03:37:21.742Z,40.60
2017-09-24T03:39:50.238Z,36.33
2017-09-24T03:42:18.680Z,38.73
2017-09-24T03:44:48.017Z,44.57
2017-09-24T03:47:16.456Z,36.50
2017-09-24T03:49:44.906Z,38.30
2017-09-24T03:52:13.360Z,40.27
2017-09-24T03:54:41.844Z,35.97
2017-09-24T03:57:10.284Z,38.63
2017-09-24T03:59:39.502Z,35.17
2017-09-24T04:02:08.726Z,37.47
2017-09-24T04:04:37.199Z,38.30
2017-09-24T04:07:05.636Z,40.90
2017-09-24T04:09:34.072Z,39.93
2017-09-24T04:12:02.532Z,30.80
2017-09-24T04:14:30.969Z,40.17
2017-09-24T04:16:59.513Z,41.00
2017-09-24T04:19:27.987Z,39.57
2017-09-24T04:21:56.471Z,42.77
2017-09-24T04:24:24.951Z,41.20
2017-09-24T04:26:53.408Z,45.77
2017-09-24T04:29:22.637Z,41.70
2017-09-24T04:31:51.097Z,44.77
2017-09-24T04:34:20.320Z,48.70
2017-09-24T04:36:48.780Z,41.40
2017-09-24T04:39:17.989Z,45.40
2017-09-24T04:41:46.475Z,44.90
2017-09-24T04:44:14.912Z,45.20
2017-09-24T04:46:43.373Z,42.90
2017-09-24T04:49:11.808Z,42.97
2017-09-24T04:51:41.030Z,42.70
2017-09-24T04:54:09.473Z,45.33
2017-09-24T04:56:38.696Z,43.03
2017-09-24T04:59:07.179Z,46.00
2017-09-24T05:01:35.635Z,43.87
2017-09-24T05:04:04.840Z,44.30
2017-09-24T05:06:34.068Z,41.70
2017-09-24T05:09:02.504Z,50.27
2017-09-24T05:11:30.964Z,45.70
2017-09-24T05:13:59.513Z,45.90
2017-09-24T05:16:27.973Z,48.87
2017-09-24T05:18:57.172Z,52.60
2017-09-24T05:21:26.396Z,53.00
2017-09-24T05:23:54.828Z,54.40
2017-09-24T05:26:23.358Z,48.37
2017-09-24T05:28:51.815Z,52.60
2017-09-24T05:31:21.031Z,52.10
2017-09-24T05:33:49.488Z,50.60
2017-09-24T05:36:18.683Z,50.83
2017-09-24T05:38:48.020Z,48.87
2017-09-24T05:41:16.494Z,55.00
2017-09-24T05:43:44.944Z,49.63
2017-09-24T05:46:14.189Z,48.90
2017-09-24T05:48:42.644Z,49.77
2017-09-24T05:51:11.838Z,50.37
2017-09-24T05:53:41.169Z,49.83
2017-09-24T05:56:09.639Z,48.87
2017-09-24T05:58:38.096Z,49.17
2017-09-24T06:01:07.303Z,44.80
2017-09-24T06:03:36.623Z,50.67
2017-09-24T06:06:05.112Z,49.17
2017-09-24T06:08:33.593Z,48.10
2017-09-24T06:11:02.045Z,45.50
2017-09-24T06:13:31.249Z,46.87
2017-09-24T06:16:00.576Z,47.30
2017-09-24T06:18:29.027Z,48.83
2017-09-24T06:20:58.248Z,45.73
2017-09-24T06:23:26.688Z,49.00
2017-09-24T06:25:55.225Z,46.47
2017-09-24T06:28:23.663Z,47.23
2017-09-24T06:30:52.995Z,48.37
2017-09-24T06:33:21.484Z,46.83
2017-09-24T06:35:49.982Z,47.20
2017-09-24T06:38:18.421Z,47.60
2017-09-24T06:40:47.649Z,45.77
2017-09-24T06:43:16.096Z,44.17
2017-09-24T06:45:45.428Z,43.13
2017-09-24T06:48:13.856Z,43.27
2017-09-24T06:50:43.075Z,43.23
2017-09-24T06:53:12.275Z,43.57
2017-09-24T06:55:41.492Z,41.40
2017-09-24T06:58:09.928Z,42.63
2017-09-24T07:00:38.384Z,42.00
2017-09-24T07:03:06.816Z,41.20
2017-09-24T07:05:36.035Z,42.40
2017-09-24T07:08:04.472Z,43.13
2017-09-24T07:10:32.949Z,42.10
2017-09-24T07:13:01.379Z,40.13
2017-09-24T07:15:29.808Z,40.13
2017-09-24T07:17:58.267Z,40.67
2017-09-24T07:20:26.752Z,41.23
2017-09-24T07:22:55.240Z,40.23
2017-09-24T07:25:23.673Z,39.80
2017-09-24T07:27:53.004Z,44.50
2017-09-24T07:30:21.442Z,41.97
2017-09-24T07:32:50.676Z,40.27
2017-09-24T07:35:19.116Z,42.77
2017-09-24T07:37:47.567Z,38.80
2017-09-24T07:40:15.994Z,42.27
2017-09-24T07:42:45.324Z,34.60
2017-09-24T07:45:13.808Z,41.03
2017-09-24T07:47:42.265Z,38.80
2017-09-24T07:50:11.458Z,38.73
2017-09-24T07:52:40.675Z,38.00
2017-09-24T07:55:09.167Z,33.50
2017-09-24T07:57:37.625Z,35.23
2017-09-24T08:00:06.819Z,39.33
2017-09-24T08:02:36.152Z,35.13
2017-09-24T08:05:04.586Z,35.77
2017-09-24T08:07:33.015Z,34.47
2017-09-24T08:10:01.492Z,33.00
2017-09-24T08:12:29.928Z,33.43
2017-09-24T08:14:58.388Z,31.70
2017-09-24T08:17:26.845Z,34.93
2017-09-24T08:19:55.296Z,34.10
2017-09-24T08:22:24.491Z,33.43
2017-09-24T08:24:53.824Z,33.60
2017-09-24T08:27:22.263Z,32.53
2017-09-24T08:29:50.720Z,31.67
2017-09-24T08:32:19.159Z,31.77
2017-09-24T08:34:47.655Z,29.33
2017-09-24T08:37:16.131Z,34.33
2017-09-24T08:39:44.579Z,34.10
2017-09-24T08:42:13.817Z,31.83
2017-09-24T08:44:42.290Z,32.60
2017-09-24T08:47:10.776Z,32.60
2017-09-24T08:49:39.251Z,31.07
2017-09-24T08:52:07.675Z,30.47
2017-09-24T08:54:36.131Z,33.87
2017-09-24T08:57:04.608Z,32.37
2017-09-24T08:59:33.089Z,33.10
2017-09-24T09:02:01.528Z,32.27
2017-09-24T09:04:30.770Z,28.93
2017-09-24T09:06:59.198Z,30.50
2017-09-24T09:09:27.633Z,31.67
2017-09-24T09:11:56.097Z,31.90
2017-09-24T09:14:24.587Z,30.50
2017-09-24T09:16:53.044Z,30.70
2017-09-24T09:19:22.271Z,30.63
2017-09-24T09:21:50.711Z,31.27
2017-09-24T09:24:19.148Z,31.83
2017-09-24T09:26:47.606Z,28.97
2017-09-24T09:29:16.108Z,27.90
2017-09-24T09:31:44.554Z,28.87
2017-09-24T09:34:31.597Z,28.10
2017-09-24T09:37:00.052Z,30.37
2017-09-24T09:39:29.243Z,27.30
2017-09-24T09:41:58.586Z,27.97
2017-09-24T09:44:44.810Z,27.70
2017-09-24T09:47:27.104Z,27.60
2017-09-24T09:49:55.532Z,28.83
2017-09-24T09:52:24.867Z,25.97
2017-09-24T09:54:53.317Z,28.07
2017-09-24T09:57:22.645Z,26.00
2017-09-24T09:59:51.084Z,26.63
2017-09-24T10:02:19.609Z,26.27
2017-09-24T10:04:48.101Z,26.23
2017-09-24T10:07:34.336Z,28.97
2017-09-24T10:10:18.345Z,24.50
2017-09-24T10:12:46.809Z,23.90
2017-09-24T10:15:15.238Z,22.97
2017-09-24T10:17:43.689Z,25.40
2017-09-24T10:20:12.115Z,22.93
2017-09-24T10:22:40.592Z,23.70
2017-09-24T10:25:09.033Z,26.40
2017-09-24T10:27:37.472Z,25.70
2017-09-24T10:30:24.566Z,23.20
2017-09-24T10:32:53.044Z,25.23
2017-09-24T10:35:21.480Z,26.70
2017-09-24T10:37:49.908Z,26.37
2017-09-24T10:40:18.360Z,25.90
2017-09-24T10:42:46.796Z,24.30
2017-09-24T10:45:16.132Z,24.30
2017-09-24T10:47:44.627Z,26.00
2017-09-24T10:50:13.084Z,24.00
2017-09-24T10:52:41.571Z,23.00
2017-09-24T10:55:10.028Z,23.90
2017-09-24T10:57:39.236Z,23.80
2017-09-24T11:00:08.560Z,23.83
2017-09-24T11:02:36.987Z,23.30
2017-09-24T11:05:05.444Z,26.37
2017-09-24T11:07:33.909Z,25.17
2017-09-24T11:10:02.384Z,21.30
2017-09-24T11:12:30.820Z,24.07
2017-09-24T11:14:59.272Z,22.97
2017-09-24T11:17:27.705Z,23.33
2017-09-24T11:19:57.027Z,23.37
2017-09-24T11:22:25.521Z,22.30
2017-09-24T11:24:53.985Z,22.70
2017-09-24T11:27:22.482Z,22.87
2017-09-24T11:29:50.960Z,23.37
2017-09-24T11:32:19.400Z,22.50
2017-09-24T11:34:48.633Z,22.77
2017-09-24T11:37:17.068Z,25.73
2017-09-24T11:39:45.604Z,22.10
2017-09-24T11:42:14.087Z,27.07
2017-09-24T11:44:42.544Z,23.07
2017-09-24T11:47:11.743Z,25.30
2017-09-24T11:49:40.973Z,23.90
2017-09-24T11:52:09.407Z,25.17
2017-09-24T11:54:38.628Z,26.17
2017-09-24T11:57:07.824Z,25.43
2017-09-24T11:59:37.143Z,28.17
2017-09-24T12:02:05.623Z,27.63
2017-09-24T12:04:34.108Z,28.17
2017-09-24T12:07:02.536Z,25.40
2017-09-24T12:09:30.992Z,26.27
2017-09-24T12:11:59.431Z,26.47
2017-09-24T12:14:28.659Z,28.90
2017-09-24T12:16:57.130Z,28.50
2017-09-24T12:19:25.559Z,28.77
2017-09-24T12:21:54.100Z,26.60
2017-09-24T12:24:22.564Z,28.70
2017-09-24T12:26:51.055Z,26.07
2017-09-24T12:29:19.483Z,24.63
2017-09-24T12:31:47.927Z,20.53
2017-09-24T12:34:16.440Z,19.27
2017-09-24T12:36:44.993Z,16.30
2017-09-24T12:39:13.479Z,20.20
2017-09-24T12:41:41.945Z,19.90
2017-09-24T12:44:10.432Z,21.27
2017-09-24T12:46:38.879Z,20.97
2017-09-24T12:49:08.116Z,21.00
2017-09-24T12:51:36.572Z,22.57
2017-09-24T12:54:05.763Z,22.87
2017-09-24T12:56:34.985Z,23.40
2017-09-24T12:59:03.415Z,20.67
2017-09-24T13:01:31.872Z,22.83
2017-09-24T13:04:00.445Z,19.63
2017-09-24T13:06:28.905Z,19.10
2017-09-24T13:08:58.129Z,22.03
2017-09-24T13:11:26.617Z,22.53
2017-09-24T13:13:55.055Z,23.20
2017-09-24T13:16:24.246Z,19.80
2017-09-24T13:18:52.708Z,19.50
2017-09-24T13:21:21.139Z,17.03
2017-09-24T13:23:49.781Z,13.90
2017-09-24T13:26:18.224Z,14.77
2017-09-24T13:28:46.683Z,12.17
2017-09-24T13:31:15.110Z,13.60
2017-09-24T13:33:43.564Z,12.70
2017-09-24T13:36:12.040Z,13.40
2017-09-24T13:38:40.496Z,14.07
2017-09-24T13:41:09.716Z,16.40
2017-09-24T13:43:38.199Z,17.10
2017-09-24T13:46:06.688Z,15.63
2017-09-24T13:48:35.157Z,16.60
2017-09-24T13:51:03.596Z,16.03
2017-09-24T13:53:32.052Z,16.90
2017-09-24T13:56:00.488Z,16.53
2017-09-24T13:58:29.712Z,15.53
2017-09-24T14:00:58.205Z,16.50
2017-09-24T14:03:26.694Z,14.20
2017-09-24T14:05:55.124Z,17.27
2017-09-24T14:08:24.436Z,14.90
2017-09-24T14:10:53.628Z,16.43
2017-09-24T14:13:22.867Z,16.17
2017-09-24T14:15:51.295Z,15.87
2017-09-24T14:18:21.355Z,14.70
2017-09-24T14:20:49.818Z,14.30
2017-09-24T14:23:19.101Z,15.23
2017-09-24T14:25:48.305Z,14.60
2017-09-24T14:28:17.636Z,14.10
2017-09-24T14:30:46.072Z,15.00
2017-09-24T14:33:14.517Z,14.37
2017-09-24T14:35:42.968Z,13.03
2017-09-24T14:38:11.460Z,17.30
2017-09-24T14:40:39.921Z,22.50
2017-09-24T14:43:09.150Z,24.87
2017-09-24T14:45:37.603Z,26.17
2017-09-24T14:48:06.794Z,24.33
2017-09-24T14:50:36.020Z,25.40
2017-09-24T14:53:04.459Z,25.77
2017-09-24T14:55:33.692Z,26.10
2017-09-24T14:58:02.123Z,27.40
2017-09-24T15:00:30.666Z,25.83
2017-09-24T15:02:59.094Z,26.50
2017-09-24T15:05:27.548Z,23.90
2017-09-24T15:07:55.985Z,25.07
2017-09-24T15:10:25.208Z,24.33
2017-09-24T15:12:53.689Z,26.07
2017-09-24T15:15:22.138Z,22.87
2017-09-24T15:17:51.464Z,24.17
2017-09-24T15:20:19.912Z,25.00
2017-09-24T15:22:49.114Z,23.40
2017-09-24T15:25:18.344Z,23.40
2017-09-24T15:27:46.837Z,22.53
2017-09-24T15:30:15.287Z,23.70
2017-09-24T15:32:44.494Z,23.73
2017-09-24T15:35:13.719Z,23.40
2017-09-24T15:37:42.314Z,21.97
2017-09-24T15:40:10.797Z,21.90
2017-09-24T15:42:39.256Z,23.30
2017-09-24T15:45:07.689Z,21.63
2017-09-24T15:47:36.144Z,22.90
2017-09-24T15:50:04.576Z,22.70
2017-09-24T15:52:33.792Z,22.33
2017-09-24T15:55:02.322Z,22.03
2017-09-24T15:57:30.876Z,23.40
2017-09-24T15:59:59.314Z,22.60
2017-09-24T16:02:27.840Z,23.50
2017-09-24T16:04:56.326Z,20.90
2017-09-24T16:07:24.789Z,21.73
2017-09-24T16:09:53.279Z,22.03
2017-09-24T16:12:21.732Z,23.50
2017-09-24T16:14:50.970Z,24.00
2017-09-24T16:17:19.428Z,23.77
2017-09-24T16:19:47.869Z,24.50
2017-09-24T16:22:17.432Z,24.20
2017-09-24T16:24:45.864Z,22.70
2017-09-24T16:27:14.404Z,23.20
2017-09-24T16:29:42.843Z,23.73
2017-09-24T16:32:12.053Z,22.90
2017-09-24T16:34:41.251Z,24.00
2017-09-24T16:37:10.579Z,23.67
2017-09-24T16:39:39.012Z,23.90
2017-09-24T16:42:07.544Z,24.77
2017-09-24T16:44:36.019Z,24.03
2017-09-24T16:47:04.496Z,23.00
2017-09-24T16:49:32.987Z,25.63
2017-09-24T16:52:01.427Z,24.40
2017-09-24T16:54:29.875Z,24.20
2017-09-24T16:56:58.336Z,22.53
2017-09-24T16:59:26.804Z,23.17
2017-09-24T17:01:55.232Z,22.90
2017-09-24T17:04:23.683Z,23.60
2017-09-24T17:06:52.124Z,21.10
2017-09-24T17:09:21.343Z,23.50
2017-09-24T17:11:49.841Z,23.70
2017-09-24T17:14:18.290Z,22.53
2017-09-24T17:16:47.529Z,25.63
2017-09-24T17:19:15.988Z,24.37
2017-09-24T17:21:44.432Z,23.90
2017-09-24T17:24:12.888Z,24.33
2017-09-24T17:26:41.315Z,24.63
2017-09-24T17:29:10.536Z,22.93
2017-09-24T17:31:38.972Z,25.73
2017-09-24T17:34:07.444Z,24.20
2017-09-24T17:36:35.880Z,25.70
2017-09-24T17:39:04.331Z,23.73
2017-09-24T17:41:33.536Z,26.13
2017-09-24T17:44:02.871Z,25.93
2017-09-24T17:46:31.346Z,26.00
2017-09-24T17:48:59.799Z,26.00
2017-09-24T17:51:28.995Z,25.90
2017-09-24T17:53:58.221Z,25.13
2017-09-24T17:56:26.725Z,25.17
2017-09-24T17:58:55.188Z,24.73
2017-09-24T18:01:23.671Z,25.87
2017-09-24T18:03:52.839Z,25.00
2017-09-24T18:06:22.044Z,25.87
2017-09-24T18:08:51.289Z,27.93
2017-09-24T18:11:19.730Z,27.90
2017-09-24T18:13:48.927Z,27.47
2017-09-24T18:16:18.140Z,25.07
2017-09-24T18:18:46.636Z,27.40
2017-09-24T18:21:15.096Z,26.63
2017-09-24T18:23:44.311Z,27.70
2017-09-24T18:26:12.759Z,27.03
2017-09-24T18:28:41.296Z,27.83
2017-09-24T18:31:09.752Z,28.60
2017-09-24T18:33:38.245Z,30.40
2017-09-24T18:36:06.701Z,30.00
2017-09-24T18:38:35.904Z,28.80
2017-09-24T18:41:05.124Z,27.80
2017-09-24T18:43:33.564Z,30.20
2017-09-24T18:46:02.792Z,27.80
2017-09-24T18:48:31.219Z,27.10
2017-09-24T18:50:59.775Z,30.37
2017-09-24T18:53:28.247Z,28.90
2017-09-24T18:55:56.738Z,29.77
2017-09-24T18:58:25.181Z,30.00
2017-09-24T19:00:54.516Z,30.87
2017-09-24T19:03:23.004Z,30.90
2017-09-24T19:05:51.518Z,30.30
2017-09-24T19:08:19.951Z,29.53
2017-09-24T19:10:48.440Z,29.83
2017-09-24T19:13:16.875Z,30.93
2017-09-24T19:15:45.351Z,30.17
2017-09-24T19:18:13.783Z,32.60
2017-09-24T19:20:42.217Z,29.80
2017-09-24T19:23:10.742Z,29.50
2017-09-24T19:25:39.227Z,29.10
2017-09-24T19:28:07.716Z,29.90
2017-09-24T19:30:36.156Z,32.00
2017-09-24T19:33:05.402Z,32.57
2017-09-24T19:35:33.840Z,30.17
2017-09-24T19:38:03.083Z,30.30
2017-09-24T19:40:31.520Z,34.07
2017-09-24T19:43:00.871Z,32.27
2017-09-24T19:45:29.304Z,30.17
2017-09-24T19:47:58.518Z,28.63
2017-09-24T19:50:27.859Z,33.60
2017-09-24T19:52:56.508Z,33.10
2017-09-24T19:55:25.716Z,32.67
2017-09-24T19:57:54.209Z,31.07
2017-09-24T20:00:22.644Z,30.23
2017-09-24T20:02:51.180Z,31.37
2017-09-24T20:05:19.619Z,30.43
2017-09-24T20:07:48.855Z,31.33
2017-09-24T20:10:17.342Z,32.00
2017-09-24T20:12:45.814Z,32.40
2017-09-24T20:15:14.263Z,33.67
2017-09-24T20:17:43.500Z,33.20
2017-09-24T20:20:11.980Z,34.47
2017-09-24T20:22:40.464Z,34.33
2017-09-24T20:25:08.943Z,35.47
2017-09-24T20:27:37.384Z,33.73
2017-09-24T20:30:06.723Z,32.00
2017-09-24T20:32:35.152Z,30.30
2017-09-24T20:35:03.611Z,32.77
2017-09-24T20:37:32.043Z,32.17
2017-09-24T20:40:01.378Z,32.03
2017-09-24T20:42:29.867Z,34.50
2017-09-24T20:44:58.331Z,32.37
2017-09-24T20:47:26.760Z,33.27
2017-09-24T20:49:55.232Z,31.40
2017-09-24T20:52:23.667Z,33.67
2017-09-24T20:54:52.104Z,33.00
2017-09-24T20:57:20.559Z,33.50
2017-09-24T20:59:48.996Z,35.07
2017-09-24T21:02:18.325Z,36.40
2017-09-24T21:04:46.803Z,35.73
2017-09-24T21:07:15.252Z,35.70
2017-09-24T21:09:44.444Z,34.97
2017-09-24T21:12:12.891Z,38.00
2017-09-24T21:14:41.350Z,33.87
2017-09-24T21:17:09.838Z,35.10
2017-09-24T21:19:38.280Z,34.53
2017-09-24T21:22:07.612Z,36.50
2017-09-24T21:24:36.041Z,34.30
2017-09-24T21:27:04.504Z,38.37
2017-09-24T21:29:32.940Z,36.27
2017-09-24T21:32:01.396Z,35.77
2017-09-24T21:34:29.831Z,37.20
2017-09-24T21:36:58.304Z,37.33
2017-09-24T21:39:26.748Z,36.53
2017-09-24T21:41:55.968Z,35.90
2017-09-24T21:44:24.404Z,33.50
2017-09-24T21:46:52.948Z,34.00
2017-09-24T21:49:21.388Z,33.93
2017-09-24T21:51:50.608Z,35.30
2017-09-24T21:54:19.803Z,37.30
2017-09-24T21:56:49.049Z,35.43
2017-09-24T21:59:17.504Z,35.13
2017-09-24T22:01:45.983Z,32.47
2017-09-24T22:04:14.431Z,32.20
2017-09-24T22:06:42.861Z,33.60
2017-09-24T22:09:11.328Z,31.63
2017-09-24T22:11:39.816Z,32.50
2017-09-24T22:14:08.302Z,33.00
2017-09-24T22:16:36.780Z,33.83
2017-09-24T22:19:05.255Z,31.97
2017-09-24T22:21:33.693Z,30.30
2017-09-24T22:24:02.221Z,35.33
2017-09-24T22:26:30.660Z,32.43
2017-09-24T22:28:59.117Z,33.33
2017-09-24T22:31:27.556Z,31.60
2017-09-24T22:33:56.016Z,31.70
2017-09-24T22:36:25.220Z,31.80
2017-09-24T22:38:54.543Z,34.33
2017-09-24T22:41:22.976Z,31.30
2017-09-24T22:43:51.440Z,36.80
2017-09-24T22:46:19.897Z,35.70
2017-09-24T22:48:48.474Z,38.53
2017-09-24T22:51:16.920Z,39.80
2017-09-24T22:53:46.468Z,36.33
2017-09-24T22:56:14.924Z,38.97
2017-09-24T22:58:44.125Z,39.60
2017-09-24T23:01:13.435Z,41.60
2017-09-24T23:03:42.045Z,42.70
2017-09-24T23:06:10.514Z,41.70
2017-09-24T23:08:38.964Z,46.50
2017-09-24T23:11:08.191Z,44.53
2017-09-24T23:13:36.671Z,43.70
2017-09-24T23:16:05.155Z,36.90
2017-09-24T23:18:33.583Z,47.10
2017-09-24T23:21:02.045Z,49.47
2017-09-24T23:23:30.492Z,51.67
2017-09-24T23:25:58.947Z,50.27
2017-09-24T23:28:28.190Z,51.87
2017-09-24T23:30:56.652Z,56.37
2017-09-24T23:33:25.092Z,52.17
2017-09-24T23:35:53.632Z,56.47
2017-09-24T23:38:22.079Z,55.77
2017-09-24T23:40:51.287Z,52.43
2017-09-24T23:43:20.512Z,54.23
2017-09-24T23:45:49.003Z,59.90
2017-09-24T23:48:17.475Z,61.60
2017-09-24T23:50:45.912Z,59.10
2017-09-24T23:53:14.372Z,56.90
2017-09-24T23:55:42.802Z,54.20
2017-09-24T23:58:11.310Z,61.40
